Time;durP1;ratioP1;P1;durP2;ratioP2;P2;SDS_P1;SDS_P2;PMS_P1;PMS_P2;Temp;Humidity;BMP_temperature;BMP_pressure;BME280_temperature;BME280_humidity;BME280_pressure;Samples;Min_cycle;Max_cycle;Signal;HPM_P1;HPM_P2
2022/08/16 00:02:07;;;;;;;6.32;5.10;;;29.20;55.10;;;;;;5099522;28;20026;-77
2022/08/16 00:04:33;;;;;;;6.97;5.03;;;29.10;55.20;;;;;;5097922;28;20031;-78
2022/08/16 00:06:59;;;;;;;8.80;5.57;;;29.00;55.10;;;;;;5095762;28;20024;-76
2022/08/16 00:09:25;;;;;;;7.57;5.60;;;29.20;54.40;;;;;;5099654;28;20036;-78
2022/08/16 00:11:51;;;;;;;9.70;6.57;;;29.40;55.30;;;;;;5098094;28;20024;-77
2022/08/16 00:14:20;;;;;;;6.68;5.35;;;29.50;55.90;;;;;;5098164;28;20050;-78
2022/08/16 00:16:47;;;;;;;9.60;5.85;;;29.40;55.40;;;;;;5097307;28;20115;-79
2022/08/16 00:19:19;;;;;;;7.80;6.03;;;29.10;55.90;;;;;;5097993;28;20435;-79
2022/08/16 00:21:45;;;;;;;7.63;6.18;;;29.10;56.10;;;;;;5098566;28;20482;-77
2022/08/16 00:24:12;;;;;;;8.18;6.65;;;29.20;56.10;;;;;;5109459;28;20023;-77
2022/08/16 00:26:40;;;;;;;9.77;6.53;;;29.20;55.70;;;;;;5100591;28;20035;-78
2022/08/16 00:29:06;;;;;;;7.80;6.15;;;29.30;55.50;;;;;;5097594;28;20027;-76
2022/08/16 00:31:33;;;;;;;8.15;5.85;;;29.20;55.70;;;;;;5100527;28;20023;-78
2022/08/16 00:33:59;;;;;;;7.05;5.72;;;29.20;55.20;;;;;;5107529;28;20020;-76
2022/08/16 00:36:25;;;;;;;6.95;5.85;;;28.80;55.40;;;;;;5097708;28;20028;-77
2022/08/16 00:38:51;;;;;;;7.70;5.85;;;28.60;56.00;;;;;;5097796;28;20044;-76
2022/08/16 00:41:17;;;;;;;8.35;6.18;;;28.70;56.00;;;;;;5098155;28;20028;-78
2022/08/16 00:43:43;;;;;;;7.53;6.38;;;28.80;55.80;;;;;;5097841;28;20019;-78
2022/08/16 00:46:13;;;;;;;7.75;6.38;;;28.90;55.80;;;;;;5109449;28;20560;-78
2022/08/16 00:48:40;;;;;;;7.35;6.18;;;28.80;55.90;;;;;;5106755;28;20035;-79
2022/08/16 00:51:06;;;;;;;7.45;5.78;;;28.90;56.00;;;;;;5108932;28;20030;-76
2022/08/16 00:53:33;;;;;;;7.32;6.30;;;28.80;56.50;;;;;;5094559;28;20492;-80
2022/08/16 00:56:04;;;;;;;8.00;6.97;;;28.80;56.50;;;;;;5097159;28;20032;-78
2022/08/16 00:58:32;;;;;;;7.90;6.68;;;28.80;56.20;;;;;;5095392;28;20031;-78
2022/08/16 01:00:58;;;;;;;8.02;6.25;;;28.80;57.20;;;;;;5098672;28;20028;-77
2022/08/16 01:03:27;;;;;;;7.53;6.03;;;28.70;57.40;;;;;;5122495;27;20032;-77
2022/08/16 01:05:53;;;;;;;8.80;6.50;;;28.70;57.30;;;;;;5079538;28;20032;-76
2022/08/16 01:08:21;;;;;;;7.53;6.13;;;28.70;56.90;;;;;;5094984;28;20024;-77
2022/08/16 01:10:48;;;;;;;7.72;6.25;;;28.70;56.90;;;;;;5096656;28;20031;-76
2022/08/16 01:13:18;;;;;;;6.95;5.85;;;28.70;56.90;;;;;;5112871;28;20027;-78
2022/08/16 01:15:51;;;;;;;7.85;6.50;;;28.60;57.20;;;;;;5096971;28;20024;-75
2022/08/16 01:18:20;;;;;;;8.80;6.10;;;28.30;57.70;;;;;;5096888;28;20031;-78
2022/08/16 01:21:22;;;;;;;7.82;6.45;;;28.40;57.40;;;;;;5096632;28;20039;-78
2022/08/16 01:24:04;;;;;;;7.40;6.43;;;28.60;57.10;;;;;;5091816;28;20042;-77
2022/08/16 01:26:32;;;;;;;8.60;5.65;;;28.50;57.20;;;;;;5097173;28;20405;-78
2022/08/16 01:29:03;;;;;;;9.13;6.32;;;28.40;57.30;;;;;;5096763;28;20032;-77
2022/08/16 01:31:28;;;;;;;9.77;6.88;;;28.20;57.50;;;;;;5093585;28;20020;-78
2022/08/16 01:33:55;;;;;;;9.25;6.97;;;28.20;57.70;;;;;;5096988;28;20110;-77
2022/08/16 01:36:21;;;;;;;7.90;6.60;;;28.30;57.30;;;;;;5098400;28;20085;-78
2022/08/16 01:38:49;;;;;;;10.80;6.10;;;28.40;57.10;;;;;;5095854;28;20028;-78
2022/08/16 01:41:18;;;;;;;7.55;6.10;;;28.20;58.10;;;;;;5096093;28;20024;-77
2022/08/16 01:43:45;;;;;;;11.23;6.65;;;28.20;57.90;;;;;;5097148;28;20024;-78
2022/08/16 01:46:30;;;;;;;7.50;6.35;;;28.30;57.80;;;;;;5092964;28;20054;-75
2022/08/16 01:49:08;;;;;;;8.77;6.72;;;28.40;57.50;;;;;;5094707;28;20039;-78
2022/08/16 01:51:35;;;;;;;10.35;7.35;;;28.30;57.40;;;;;;5093422;28;20024;-78
2022/08/16 01:54:01;;;;;;;9.20;6.85;;;28.20;57.90;;;;;;5096851;28;20020;-78
2022/08/16 01:56:28;;;;;;;9.73;6.38;;;28.20;57.80;;;;;;5113753;28;20047;-77
2022/08/16 01:58:56;;;;;;;9.27;6.63;;;28.30;57.60;;;;;;5110495;28;20165;-77
2022/08/16 02:01:22;;;;;;;8.65;6.53;;;28.30;57.50;;;;;;5096211;28;20024;-77
2022/08/16 02:03:48;;;;;;;9.00;6.47;;;28.20;57.50;;;;;;5096037;28;20398;-78
2022/08/16 02:06:14;;;;;;;8.00;6.80;;;28.20;57.40;;;;;;5095890;28;20016;-77
2022/08/16 02:08:40;;;;;;;7.68;6.30;;;28.20;57.30;;;;;;5092096;28;20032;-77
2022/08/16 02:11:07;;;;;;;8.48;6.25;;;28.30;57.00;;;;;;5092697;28;20113;-78
2022/08/16 02:13:34;;;;;;;7.78;6.63;;;28.40;57.00;;;;;;5094685;28;20054;-77
2022/08/16 02:16:00;;;;;;;8.52;6.38;;;28.40;56.90;;;;;;5093180;28;20031;-77
2022/08/16 02:18:26;;;;;;;9.02;6.50;;;28.40;57.00;;;;;;5102314;28;20200;-77
2022/08/16 02:20:52;;;;;;;8.32;5.93;;;28.40;56.90;;;;;;5113497;28;20034;-77
2022/08/16 02:23:19;;;;;;;8.07;6.40;;;28.10;57.40;;;;;;5108271;28;20020;-76
2022/08/16 02:25:46;;;;;;;7.78;6.72;;;27.90;57.90;;;;;;5095247;28;20103;-77
2022/08/16 02:28:12;;;;;;;8.05;6.93;;;28.00;57.90;;;;;;5097170;28;20020;-78
2022/08/16 02:30:39;;;;;;;8.43;6.53;;;28.00;57.60;;;;;;5100024;28;20023;-76
2022/08/16 02:33:06;;;;;;;8.23;6.30;;;27.90;58.20;;;;;;5098106;28;20150;-76
2022/08/16 02:35:32;;;;;;;7.57;6.28;;;27.70;58.50;;;;;;5097999;28;20028;-77
2022/08/16 02:37:59;;;;;;;7.78;6.00;;;27.80;58.30;;;;;;5102270;28;20618;-76
2022/08/16 02:40:25;;;;;;;7.68;6.07;;;27.80;58.60;;;;;;5095956;28;20482;-76
2022/08/16 02:42:51;;;;;;;8.15;6.10;;;27.60;58.70;;;;;;5095431;28;20098;-76
2022/08/16 02:45:20;;;;;;;7.43;6.05;;;27.50;59.10;;;;;;5092811;28;20028;-76
2022/08/16 02:47:46;;;;;;;8.57;6.93;;;27.60;58.70;;;;;;5094489;28;20032;-75
2022/08/16 02:50:12;;;;;;;8.23;7.07;;;27.90;58.40;;;;;;5102526;28;20028;-77
2022/08/16 02:52:38;;;;;;;8.93;7.00;;;28.00;58.50;;;;;;5111436;28;20024;-77
2022/08/16 02:55:05;;;;;;;9.88;6.75;;;28.00;58.10;;;;;;5107633;28;20444;-77
2022/08/16 02:57:32;;;;;;;7.57;6.15;;;28.10;57.80;;;;;;5129608;27;20020;-77
2022/08/16 02:59:58;;;;;;;9.00;7.07;;;28.10;57.70;;;;;;5106527;28;20036;-77
2022/08/16 03:02:24;;;;;;;8.02;6.43;;;28.20;57.60;;;;;;5099715;28;20091;-78
2022/08/16 03:04:50;;;;;;;8.60;6.80;;;27.80;58.60;;;;;;5097507;28;20497;-78
2022/08/16 03:07:18;;;;;;;8.23;6.68;;;27.50;59.70;;;;;;5098678;28;20024;-77
2022/08/16 03:09:44;;;;;;;8.85;7.20;;;27.60;59.30;;;;;;5100839;28;20024;-78
2022/08/16 03:12:09;;;;;;;9.32;6.70;;;27.70;58.50;;;;;;5109203;28;20016;-78
2022/08/16 03:14:36;;;;;;;8.32;6.28;;;27.90;58.30;;;;;;5099146;28;20043;-77
2022/08/16 03:17:01;;;;;;;8.60;6.53;;;27.90;58.10;;;;;;5100274;28;20501;-78
2022/08/16 03:19:30;;;;;;;8.45;7.10;;;28.00;57.90;;;;;;5099126;28;20065;-78
2022/08/16 03:21:55;;;;;;;8.80;7.43;;;28.00;57.70;;;;;;5105906;28;20371;-77
2022/08/16 03:24:21;;;;;;;8.98;7.20;;;27.90;57.60;;;;;;5113718;28;21047;-76
2022/08/16 03:26:47;;;;;;;10.30;7.82;;;27.80;57.60;;;;;;5108932;28;20074;-76
2022/08/16 03:29:12;;;;;;;9.73;7.32;;;27.70;57.80;;;;;;5115657;28;20572;-79
2022/08/16 03:31:38;;;;;;;8.77;7.13;;;27.60;58.20;;;;;;5111442;28;20040;-77
2022/08/16 03:34:04;;;;;;;8.70;7.63;;;27.60;58.20;;;;;;5097730;28;20033;-79
2022/08/16 03:36:30;;;;;;;9.18;7.47;;;27.70;58.30;;;;;;5114013;28;20431;-78
2022/08/16 03:38:55;;;;;;;9.20;6.90;;;27.70;58.40;;;;;;5100508;28;20027;-78
2022/08/16 03:41:22;;;;;;;9.80;7.45;;;27.80;58.60;;;;;;5098750;28;20513;-76
2022/08/16 03:43:48;;;;;;;8.43;6.80;;;27.90;58.60;;;;;;5098125;28;20074;-75
2022/08/16 03:46:14;;;;;;;8.93;7.25;;;27.70;58.90;;;;;;5101055;28;20027;-77
2022/08/16 03:48:40;;;;;;;10.32;7.45;;;27.60;59.50;;;;;;5097465;28;20032;-77
2022/08/16 03:51:09;;;;;;;9.18;6.88;;;27.70;59.30;;;;;;5098291;28;20038;-75
2022/08/16 03:53:35;;;;;;;8.07;7.03;;;28.00;58.90;;;;;;5098278;28;20051;-77
2022/08/16 03:56:01;;;;;;;8.85;6.80;;;28.00;58.70;;;;;;5099214;28;20043;-77
2022/08/16 03:58:27;;;;;;;8.98;6.20;;;28.20;58.50;;;;;;5100648;28;20085;-77
2022/08/16 04:00:54;;;;;;;9.57;7.20;;;28.10;58.60;;;;;;5113385;28;20039;-78
2022/08/16 04:03:20;;;;;;;10.25;6.90;;;27.90;59.30;;;;;;5102671;28;20016;-76
2022/08/16 04:05:47;;;;;;;8.32;6.60;;;27.80;59.60;;;;;;5108837;28;20035;-77
2022/08/16 04:08:13;;;;;;;9.07;6.68;;;27.80;59.40;;;;;;5107077;28;20024;-78
2022/08/16 04:10:40;;;;;;;7.47;6.40;;;27.70;59.50;;;;;;5107756;28;20034;-77
2022/08/16 04:13:06;;;;;;;7.38;6.38;;;27.80;59.40;;;;;;5115057;28;20063;-77
2022/08/16 04:15:32;;;;;;;10.55;6.60;;;28.00;59.30;;;;;;5098659;28;20054;-76
2022/08/16 04:18:00;;;;;;;8.30;6.22;;;28.10;59.30;;;;;;5103762;28;20473;-78
2022/08/16 04:20:26;;;;;;;8.13;6.70;;;28.10;59.20;;;;;;5113635;28;20118;-79
2022/08/16 04:22:52;;;;;;;7.30;6.07;;;28.20;59.40;;;;;;5130142;27;20099;-76
2022/08/16 04:25:18;;;;;;;8.52;6.80;;;27.80;58.10;;;;;;5118334;27;20095;-76
2022/08/16 04:27:44;;;;;;;7.55;6.50;;;27.70;59.40;;;;;;5115564;28;20031;-75
2022/08/16 04:30:14;;;;;;;8.38;6.65;;;28.10;59.90;;;;;;5115526;27;20377;-75
2022/08/16 04:32:41;;;;;;;8.85;7.38;;;28.40;58.70;;;;;;5115558;28;20088;-78
2022/08/16 04:35:10;;;;;;;7.95;6.70;;;28.70;58.80;;;;;;5115050;27;20042;-75
2022/08/16 04:37:37;;;;;;;8.77;6.20;;;29.00;58.30;;;;;;5114173;28;20030;-74
2022/08/16 04:40:05;;;;;;;7.75;6.70;;;29.20;56.90;;;;;;5119138;27;20035;-75
2022/08/16 04:42:30;;;;;;;11.93;6.28;;;29.40;57.20;;;;;;5120182;27;20058;-76
2022/08/16 04:44:57;;;;;;;8.63;6.82;;;29.50;57.30;;;;;;5116942;27;20054;-75
2022/08/16 04:47:28;;;;;;;7.80;6.43;;;29.50;57.30;;;;;;5117397;27;20045;-74
2022/08/16 04:49:54;;;;;;;10.23;6.30;;;29.50;57.30;;;;;;5114309;28;20016;-78
2022/08/16 04:52:21;;;;;;;8.32;6.13;;;29.60;57.00;;;;;;5132281;27;20440;-79
2022/08/16 04:54:46;;;;;;;9.30;6.40;;;29.70;57.10;;;;;;5134358;27;20147;-76
2022/08/16 04:57:12;;;;;;;9.60;6.63;;;29.80;57.00;;;;;;5130754;27;20037;-78
2022/08/16 04:59:39;;;;;;;7.88;6.20;;;29.80;56.80;;;;;;5100852;28;20043;-76
2022/08/16 05:02:05;;;;;;;10.10;5.90;;;30.00;56.40;;;;;;5120403;27;20046;-77
2022/08/16 05:04:30;;;;;;;7.65;6.35;;;29.80;56.30;;;;;;5109412;28;20417;-79
2022/08/16 05:06:57;;;;;;;7.47;6.00;;;30.00;56.90;;;;;;5113160;28;20035;-76
2022/08/16 05:09:23;;;;;;;8.45;5.90;;;30.20;56.90;;;;;;5112836;28;20031;-77
2022/08/16 05:11:48;;;;;;;9.98;6.63;;;30.30;57.50;;;;;;5123728;27;20031;-78
2022/08/16 05:14:14;;;;;;;6.68;5.55;;;30.50;56.80;;;;;;5131687;27;20106;-78
2022/08/16 05:16:40;;;;;;;10.23;5.90;;;30.70;55.70;;;;;;5097567;28;20431;-77
2022/08/16 05:19:07;;;;;;;8.43;5.90;;;30.80;53.80;;;;;;5109942;27;20450;-74
2022/08/16 05:21:34;;;;;;;10.18;5.50;;;30.90;54.00;;;;;;5112424;28;20027;-74
2022/08/16 05:24:00;;;;;;;7.20;6.03;;;31.00;54.80;;;;;;5113230;28;20015;-73
2022/08/16 05:26:29;;;;;;;7.43;5.88;;;31.10;55.60;;;;;;5113293;28;20115;-75
2022/08/16 05:28:56;;;;;;;6.35;5.47;;;31.30;54.90;;;;;;5113343;28;20350;-76
2022/08/16 05:31:26;;;;;;;7.57;5.88;;;31.40;55.00;;;;;;5117161;27;20019;-74
2022/08/16 05:33:55;;;;;;;7.38;6.20;;;31.60;55.30;;;;;;5115424;27;20042;-76
2022/08/16 05:36:21;;;;;;;6.95;6.10;;;31.60;55.70;;;;;;5110311;27;20092;-75
2022/08/16 05:38:47;;;;;;;7.00;5.85;;;31.70;56.00;;;;;;5096929;28;20024;-73
2022/08/16 05:41:13;;;;;;;7.50;6.22;;;31.70;56.40;;;;;;5093443;28;20043;-76
2022/08/16 05:43:40;;;;;;;8.02;6.40;;;31.80;56.50;;;;;;5108956;27;20027;-77
2022/08/16 05:46:06;;;;;;;8.18;5.93;;;31.90;57.00;;;;;;5132793;27;20020;-75
2022/08/16 05:48:31;;;;;;;8.52;6.35;;;31.80;57.50;;;;;;5109852;28;20024;-79
2022/08/16 05:50:57;;;;;;;6.80;6.03;;;31.70;57.60;;;;;;5114125;28;20023;-76
2022/08/16 05:53:23;;;;;;;8.90;6.32;;;31.70;57.20;;;;;;5112580;28;20024;-77
2022/08/16 05:55:50;;;;;;;7.60;6.40;;;31.80;56.40;;;;;;5113955;28;20044;-75
2022/08/16 05:58:16;;;;;;;9.50;6.30;;;31.80;55.50;;;;;;5114281;28;20027;-78
2022/08/16 06:00:42;;;;;;;8.40;6.45;;;32.00;55.10;;;;;;5113314;28;20412;-78
2022/08/16 06:03:08;;;;;;;10.82;6.25;;;32.00;55.10;;;;;;5113503;28;20626;-77
2022/08/16 06:05:33;;;;;;;11.50;6.72;;;32.00;55.00;;;;;;5112303;28;20123;-81
2022/08/16 06:07:59;;;;;;;10.75;6.20;;;32.00;54.80;;;;;;5112586;28;20020;-77
2022/08/16 06:10:25;;;;;;;8.23;6.03;;;31.90;54.60;;;;;;5113669;28;20055;-80
2022/08/16 06:12:50;;;;;;;9.98;6.40;;;31.80;54.80;;;;;;5113796;27;20526;-78
2022/08/16 06:15:19;;;;;;;9.65;6.30;;;31.70;54.60;;;;;;5113577;28;20024;-78
2022/08/16 06:17:45;;;;;;;8.45;6.18;;;31.70;54.60;;;;;;5113168;28;20027;-76
2022/08/16 06:20:20;;;;;;;8.70;6.45;;;31.70;55.00;;;;;;5113186;28;20058;-76
2022/08/16 06:22:46;;;;;;;9.02;6.43;;;31.60;55.20;;;;;;5113071;28;20026;-75
2022/08/16 06:25:13;;;;;;;7.53;6.15;;;31.40;55.40;;;;;;5112660;28;20057;-77
2022/08/16 06:27:38;;;;;;;7.50;5.90;;;31.40;55.40;;;;;;5094969;28;20160;-76
2022/08/16 06:30:09;;;;;;;8.75;6.30;;;31.30;55.50;;;;;;5113162;28;20106;-77
2022/08/16 06:32:35;;;;;;;8.77;5.93;;;31.20;55.00;;;;;;5113157;28;20027;-78
2022/08/16 06:35:02;;;;;;;7.13;6.15;;;31.30;55.10;;;;;;5113594;28;20032;-79
2022/08/16 06:37:28;;;;;;;7.63;5.75;;;31.20;55.10;;;;;;5112914;28;20531;-83
2022/08/16 06:39:54;;;;;;;10.00;6.05;;;31.10;54.40;;;;;;5112755;28;20086;-78
2022/08/16 06:42:20;;;;;;;10.57;6.00;;;31.00;53.50;;;;;;5112198;28;20416;-75
2022/08/16 06:44:45;;;;;;;7.72;5.50;;;31.00;54.40;;;;;;5112840;28;20050;-79
2022/08/16 06:47:12;;;;;;;8.10;6.22;;;31.20;54.00;;;;;;5113847;28;20020;-77
2022/08/16 06:49:38;;;;;;;8.10;5.85;;;31.40;53.70;;;;;;5113475;28;20052;-76
2022/08/16 06:52:04;;;;;;;8.85;5.50;;;31.60;53.70;;;;;;5113702;28;20076;-85
2022/08/16 06:54:30;;;;;;;6.65;5.45;;;31.50;52.60;;;;;;5112546;28;20067;-87
2022/08/16 06:56:55;;;;;;;5.93;5.20;;;31.40;52.70;;;;;;5113526;28;20454;-81
2022/08/16 06:59:21;;;;;;;8.27;5.72;;;31.40;53.00;;;;;;5113923;28;20027;-79
2022/08/16 07:01:48;;;;;;;7.15;5.55;;;31.50;52.80;;;;;;5095750;28;20031;-82
2022/08/16 07:04:13;;;;;;;6.20;5.03;;;31.60;52.30;;;;;;5093507;28;20112;-82
2022/08/16 07:06:41;;;;;;;8.63;5.28;;;31.60;52.80;;;;;;5092395;28;20382;-82
2022/08/16 07:09:07;;;;;;;8.05;5.32;;;31.60;52.60;;;;;;5111568;28;20515;-79
2022/08/16 07:11:33;;;;;;;9.07;5.45;;;31.60;52.30;;;;;;5091226;28;20039;-82
2022/08/16 07:13:58;;;;;;;7.13;5.20;;;31.70;52.90;;;;;;5108394;28;20065;-81
2022/08/16 07:16:24;;;;;;;6.30;5.13;;;31.80;52.10;;;;;;5093590;28;20470;-79
2022/08/16 07:18:51;;;;;;;6.57;5.30;;;31.80;51.90;;;;;;5111493;28;20051;-80
2022/08/16 07:21:16;;;;;;;8.90;5.53;;;31.80;51.60;;;;;;5112785;28;20512;-82
2022/08/16 07:23:45;;;;;;;8.10;5.20;;;31.80;52.20;;;;;;5095105;28;20020;-82
2022/08/16 07:26:20;;;;;;;6.82;5.25;;;31.80;52.10;;;;;;5095145;28;20035;-76
2022/08/16 07:28:45;;;;;;;7.88;5.25;;;32.00;52.40;;;;;;5113276;28;20099;-83
2022/08/16 07:31:11;;;;;;;6.57;5.05;;;32.40;51.80;;;;;;5113505;28;20149;-79
2022/08/16 07:33:38;;;;;;;8.90;5.65;;;32.60;51.20;;;;;;5112996;28;20096;-79
2022/08/16 07:36:05;;;;;;;8.40;5.57;;;32.80;51.30;;;;;;5113157;28;20056;-76
2022/08/16 07:38:31;;;;;;;7.38;5.20;;;32.90;51.30;;;;;;5111861;28;20028;-76
2022/08/16 07:40:57;;;;;;;7.40;5.20;;;33.00;51.90;;;;;;5112383;28;20035;-78
2022/08/16 07:43:23;;;;;;;8.45;5.72;;;33.30;50.80;;;;;;5113572;28;20028;-76
2022/08/16 07:45:49;;;;;;;6.88;5.13;;;33.40;50.10;;;;;;5116570;28;20024;-78
2022/08/16 07:48:15;;;;;;;8.02;5.30;;;33.40;50.60;;;;;;5117002;28;20024;-77
2022/08/16 07:50:42;;;;;;;8.98;5.70;;;33.30;50.00;;;;;;5117074;28;20022;-82
2022/08/16 07:53:09;;;;;;;7.15;4.97;;;33.40;50.50;;;;;;5098282;28;20019;-78
2022/08/16 07:55:35;;;;;;;6.85;4.88;;;33.60;50.40;;;;;;5116678;28;20043;-80
2022/08/16 07:58:01;;;;;;;9.77;5.18;;;33.90;50.10;;;;;;5116472;28;20111;-87
2022/08/16 08:00:27;;;;;;;5.75;4.95;;;34.20;50.00;;;;;;5097434;28;20046;-77
2022/08/16 08:02:54;;;;;;;7.05;5.32;;;34.10;49.70;;;;;;5115734;28;20024;-77
2022/08/16 08:05:21;;;;;;;9.82;4.80;;;34.00;49.60;;;;;;5116337;28;20016;-81
2022/08/16 08:07:48;;;;;;;9.95;5.00;;;33.90;50.50;;;;;;5112754;28;20398;-76
2022/08/16 08:10:14;;;;;;;10.10;4.93;;;33.90;49.50;;;;;;5100271;28;20470;-78
2022/08/16 08:12:42;;;;;;;6.95;4.68;;;33.90;49.70;;;;;;5095303;28;20031;-78
2022/08/16 08:15:10;;;;;;;6.35;5.05;;;34.10;49.70;;;;;;5095840;28;20060;-77
2022/08/16 08:17:39;;;;;;;8.85;5.10;;;34.40;49.50;;;;;;5095290;28;20055;-78
2022/08/16 08:20:08;;;;;;;9.17;4.77;;;34.50;49.60;;;;;;5095402;28;20555;-79
2022/08/16 08:22:35;;;;;;;5.90;4.80;;;34.70;49.50;;;;;;5095376;28;20607;-77
2022/08/16 08:25:01;;;;;;;6.97;4.70;;;34.60;48.60;;;;;;5095407;28;20020;-79
2022/08/16 08:27:28;;;;;;;5.53;4.70;;;34.80;49.20;;;;;;5095788;28;20467;-82
2022/08/16 08:29:54;;;;;;;7.82;4.72;;;34.80;48.70;;;;;;5095421;28;20039;-77
2022/08/16 08:32:20;;;;;;;11.40;4.85;;;34.70;49.00;;;;;;5095591;28;20032;-79
2022/08/16 08:34:47;;;;;;;7.10;4.88;;;34.70;48.20;;;;;;5095545;28;20039;-80
2022/08/16 08:37:13;;;;;;;7.53;4.63;;;34.60;48.40;;;;;;5095473;28;20359;-81
2022/08/16 08:39:39;;;;;;;6.70;4.88;;;34.70;48.50;;;;;;5076733;28;20493;-79
2022/08/16 08:42:06;;;;;;;6.82;4.90;;;34.90;48.80;;;;;;5095230;28;20066;-79
2022/08/16 08:44:33;;;;;;;7.07;4.93;;;35.00;48.50;;;;;;5095159;28;20024;-79
2022/08/16 08:47:05;;;;;;;7.60;5.25;;;34.90;48.60;;;;;;5095025;28;20028;-76
2022/08/16 08:49:32;;;;;;;9.13;4.97;;;34.70;48.90;;;;;;5095472;28;20490;-77
2022/08/16 08:51:58;;;;;;;9.13;5.05;;;34.90;48.90;;;;;;5094978;28;20356;-78
2022/08/16 08:54:25;;;;;;;5.85;4.75;;;35.20;48.90;;;;;;5093967;28;20035;-78
2022/08/16 08:56:52;;;;;;;6.18;5.22;;;35.20;48.90;;;;;;5110796;28;20127;-81
2022/08/16 08:59:18;;;;;;;7.07;4.57;;;35.30;48.50;;;;;;5114880;28;20024;-78
2022/08/16 09:01:44;;;;;;;5.82;4.95;;;35.40;48.60;;;;;;5114863;28;20061;-77
2022/08/16 09:04:10;;;;;;;8.13;5.20;;;35.60;48.80;;;;;;5115209;28;20024;-79
2022/08/16 09:06:37;;;;;;;6.85;5.15;;;35.80;49.30;;;;;;5096564;28;20035;-83
2022/08/16 09:09:04;;;;;;;5.80;4.80;;;35.90;48.90;;;;;;5114526;28;20016;-77
2022/08/16 09:11:31;;;;;;;8.02;5.13;;;35.60;48.70;;;;;;5114301;28;20053;-76
2022/08/16 09:13:56;;;;;;;9.35;5.18;;;35.50;49.10;;;;;;5097021;28;20354;-78
2022/08/16 09:16:22;;;;;;;7.65;5.28;;;35.30;49.10;;;;;;5114437;28;20464;-78
2022/08/16 09:18:48;;;;;;;6.90;4.95;;;35.40;49.30;;;;;;5114473;28;20458;-76
2022/08/16 09:21:15;;;;;;;5.82;4.70;;;35.60;48.70;;;;;;5114756;28;20031;-79
2022/08/16 09:23:41;;;;;;;7.75;5.00;;;35.80;48.40;;;;;;5114582;28;20023;-85
2022/08/16 09:26:09;;;;;;;7.43;4.90;;;36.10;48.60;;;;;;5108377;28;20431;-80
2022/08/16 09:28:37;;;;;;;8.43;4.70;;;36.30;48.50;;;;;;5096850;28;20404;-77
2022/08/16 09:31:04;;;;;;;9.10;5.00;;;36.20;47.30;;;;;;5096038;28;20034;-78
2022/08/16 09:33:30;;;;;;;7.78;5.18;;;36.00;47.80;;;;;;5112486;28;20097;-78
2022/08/16 09:35:56;;;;;;;6.60;4.93;;;36.10;47.80;;;;;;5112480;28;20031;-76
2022/08/16 09:38:23;;;;;;;7.85;4.85;;;36.20;48.20;;;;;;5112310;28;20027;-79
2022/08/16 09:40:48;;;;;;;7.82;4.78;;;36.40;46.90;;;;;;5092127;28;20538;-78
2022/08/16 09:43:18;;;;;;;5.97;4.90;;;36.40;46.90;;;;;;5113960;28;20015;-78
2022/08/16 09:45:45;;;;;;;5.47;4.45;;;36.50;47.20;;;;;;5095702;28;20035;-77
2022/08/16 09:48:13;;;;;;;9.30;5.07;;;36.70;47.10;;;;;;5113471;28;20020;-79
2022/08/16 09:50:42;;;;;;;6.13;4.68;;;36.90;47.40;;;;;;5114095;28;20028;-79
2022/08/16 09:53:15;;;;;;;8.60;4.72;;;36.90;46.50;;;;;;5114032;28;20466;-83
2022/08/16 09:55:42;;;;;;;6.28;4.90;;;37.00;46.30;;;;;;5112057;28;20056;-84
2022/08/16 09:58:08;;;;;;;6.65;4.95;;;37.10;46.50;;;;;;5113216;28;20015;-85
2022/08/16 10:00:34;;;;;;;5.90;4.80;;;37.30;45.90;;;;;;5113575;28;20050;-85
2022/08/16 10:03:00;;;;;;;5.82;4.60;;;37.40;45.80;;;;;;5113262;28;20023;-77
2022/08/16 10:05:26;;;;;;;6.35;4.80;;;37.50;46.00;;;;;;5095321;28;20032;-78
2022/08/16 10:07:52;;;;;;;6.55;4.85;;;37.70;46.10;;;;;;5113415;28;20028;-77
2022/08/16 10:10:20;;;;;;;6.97;4.88;;;37.90;45.90;;;;;;5113473;28;20031;-78
2022/08/16 10:15:32;;;;;;;7.72;4.93;;;37.90;45.90;;;;;;5114082;28;20083;-79
2022/08/16 10:17:59;;;;;;;6.70;4.50;;;37.90;46.50;;;;;;4404666;28;10000749;-79
2022/08/16 10:20:26;;;;;;;6.57;4.80;;;38.10;46.10;;;;;;5107934;28;20057;-76
2022/08/16 10:22:53;;;;;;;5.43;4.57;;;38.40;45.90;;;;;;5109456;28;20104;-77
2022/08/16 10:25:21;;;;;;;6.40;4.75;;;38.60;45.50;;;;;;5109670;28;20023;-78
2022/08/16 10:27:47;;;;;;;9.52;4.68;;;38.50;46.50;;;;;;5108579;28;20032;-75
2022/08/16 10:30:15;;;;;;;7.30;4.85;;;38.60;45.70;;;;;;5109461;28;20168;-81
2022/08/16 10:32:40;;;;;;;6.95;4.85;;;38.40;45.10;;;;;;5110569;28;20689;-78
2022/08/16 10:35:07;;;;;;;6.32;4.72;;;38.20;45.30;;;;;;5109505;28;20477;-75
2022/08/16 10:37:32;;;;;;;6.38;4.50;;;38.10;45.00;;;;;;5110219;28;20115;-83
2022/08/16 10:40:00;;;;;;;7.07;4.40;;;38.10;45.20;;;;;;5110280;28;20032;-77
2022/08/16 10:42:26;;;;;;;6.60;4.55;;;38.10;45.70;;;;;;5091720;28;20036;-75
2022/08/16 10:44:52;;;;;;;6.30;4.30;;;38.10;45.30;;;;;;5092098;28;20500;-77
2022/08/16 10:47:18;;;;;;;6.45;4.40;;;38.40;44.90;;;;;;5110116;28;20027;-76
2022/08/16 10:49:44;;;;;;;8.95;4.35;;;38.50;44.60;;;;;;5109809;28;20027;-76
2022/08/16 10:52:10;;;;;;;5.78;4.55;;;38.90;45.50;;;;;;5110060;28;20467;-76
2022/08/16 10:54:35;;;;;;;6.70;4.30;;;38.80;43.80;;;;;;5110759;28;20633;-78
2022/08/16 10:57:03;;;;;;;5.40;4.50;;;39.10;45.30;;;;;;5109959;28;20055;-79
2022/08/16 10:59:30;;;;;;;6.70;4.82;;;39.60;44.10;;;;;;5110512;28;20031;-77
2022/08/16 11:01:57;;;;;;;5.93;4.50;;;39.70;44.10;;;;;;5110677;28;20463;-75
2022/08/16 11:04:25;;;;;;;5.40;4.40;;;39.70;44.00;;;;;;5108465;28;20031;-76
2022/08/16 11:06:51;;;;;;;7.05;4.35;;;39.80;44.10;;;;;;5110264;28;20051;-75
2022/08/16 11:09:17;;;;;;;5.05;4.07;;;39.20;43.40;;;;;;5109765;28;20036;-81
2022/08/16 11:11:43;;;;;;;6.25;4.30;;;39.00;43.50;;;;;;5110469;28;20424;-78
2022/08/16 11:14:09;;;;;;;6.88;4.40;;;38.90;43.60;;;;;;5110156;28;20583;-75
2022/08/16 11:16:35;;;;;;;6.05;4.15;;;38.90;43.70;;;;;;5114849;28;20019;-83
2022/08/16 11:19:02;;;;;;;6.55;4.50;;;38.70;43.40;;;;;;5132087;27;20405;-74
2022/08/16 11:21:28;;;;;;;5.35;3.63;;;38.50;43.80;;;;;;5116043;27;20030;-77
2022/08/16 11:23:55;;;;;;;5.88;3.95;;;38.60;43.40;;;;;;5116772;27;20423;-78
2022/08/16 11:26:21;;;;;;;4.90;4.30;;;38.70;43.80;;;;;;5134696;27;20027;-77
2022/08/16 11:28:49;;;;;;;5.63;4.00;;;38.80;43.40;;;;;;5134128;27;20140;-78
2022/08/16 11:31:16;;;;;;;5.57;4.30;;;38.70;43.00;;;;;;5134591;27;20026;-77
2022/08/16 11:33:42;;;;;;;7.18;4.30;;;38.70;43.00;;;;;;5134660;27;20027;-77
2022/08/16 11:36:08;;;;;;;5.68;4.13;;;38.60;42.90;;;;;;5131407;27;20031;-77
2022/08/16 11:38:33;;;;;;;7.65;4.50;;;38.60;42.90;;;;;;5094706;28;20427;-79
2022/08/16 11:41:00;;;;;;;7.35;4.22;;;38.30;43.20;;;;;;5093527;28;20435;-77
2022/08/16 11:43:31;;;;;;;4.95;3.85;;;38.60;42.70;;;;;;5112890;28;20226;-77
2022/08/16 11:45:59;;;;;;;6.10;4.32;;;38.60;42.80;;;;;;5087788;28;20035;-80
2022/08/16 11:48:27;;;;;;;5.13;4.07;;;38.00;41.80;;;;;;5091535;28;20020;-79
2022/08/16 11:50:53;;;;;;;6.22;3.95;;;37.90;43.70;;;;;;5112225;27;20027;-75
2022/08/16 11:53:22;;;;;;;5.72;4.45;;;38.30;43.50;;;;;;5112303;28;20024;-75
2022/08/16 11:55:49;;;;;;;8.25;4.20;;;38.50;43.50;;;;;;5112950;28;20031;-76
2022/08/16 11:58:15;;;;;;;6.30;4.32;;;38.60;43.70;;;;;;5114392;28;20016;-77
2022/08/16 12:00:43;;;;;;;22.15;4.57;;;38.60;42.50;;;;;;5113511;28;20122;-78
2022/08/16 12:03:09;;;;;;;5.25;4.45;;;38.30;43.20;;;;;;5109377;28;20419;-73
2022/08/16 12:05:37;;;;;;;6.43;4.20;;;38.50;43.20;;;;;;5112338;28;20462;-81
2022/08/16 12:08:05;;;;;;;6.22;4.30;;;38.70;42.90;;;;;;5114897;28;20024;-83
2022/08/16 12:10:31;;;;;;;5.20;4.03;;;38.50;43.30;;;;;;5121082;27;20429;-84
2022/08/16 12:12:57;;;;;;;6.03;4.38;;;38.50;43.50;;;;;;5097646;28;20023;-76
2022/08/16 12:15:25;;;;;;;6.43;3.83;;;38.60;43.00;;;;;;5096540;28;20033;-84
2022/08/16 12:17:52;;;;;;;5.05;4.03;;;38.60;42.60;;;;;;5102291;27;20072;-76
2022/08/16 12:20:24;;;;;;;4.60;3.80;;;38.70;42.50;;;;;;5119747;27;20032;-78
2022/08/16 12:22:51;;;;;;;6.75;5.40;;;39.00;42.30;;;;;;5099662;28;20069;-81
2022/08/16 12:25:18;;;;;;;5.10;3.97;;;39.10;42.40;;;;;;5115769;28;20023;-80
2022/08/16 12:27:46;;;;;;;5.32;4.45;;;39.30;43.10;;;;;;5115219;28;20051;-83
2022/08/16 12:30:15;;;;;;;5.00;4.03;;;39.70;43.40;;;;;;5114088;28;20020;-79
2022/08/16 12:32:41;;;;;;;6.18;4.28;;;39.60;42.40;;;;;;5115960;28;20027;-78
2022/08/16 12:35:11;;;;;;;6.22;4.03;;;39.60;42.70;;;;;;5115388;28;20050;-77
2022/08/16 12:37:37;;;;;;;6.03;4.28;;;39.60;42.90;;;;;;5114336;28;20039;-78
2022/08/16 12:40:06;;;;;;;4.60;3.95;;;39.50;42.20;;;;;;5115047;28;20081;-82
2022/08/16 12:42:33;;;;;;;4.80;4.10;;;39.40;41.90;;;;;;5085604;28;20363;-78
2022/08/16 12:45:00;;;;;;;6.07;4.22;;;39.40;41.90;;;;;;5112156;27;20077;-82
2022/08/16 12:50:10;;;;;;;4.55;3.80;;;39.20;41.60;;;;;;5114120;28;20028;-79